Time;durP1;ratioP1;P1;durP2;ratioP2;P2;SDS_P1;SDS_P2;PMS_P1;PMS_P2;Temp;Humidity;BMP_temperature;BMP_pressure;BME280_temperature;BME280_humidity;BME280_pressure;Samples;Min_cycle;Max_cycle;Signal;HPM_P1;HPM_P2
2021/06/04 00:01:41;;;;;;;10.67;6.90;;;;;;;;;;13070556;22;20177;-84
2021/06/04 00:06:44;;;;;;;11.23;6.90;;;;;;;;;;13095359;22;20528;-85
2021/06/04 00:11:47;;;;;;;14.33;7.17;;;;;;;;;;13073103;22;20169;-85
2021/06/04 00:16:53;;;;;;;10.60;7.23;;;;;;;;;;13072321;22;20974;-85
2021/06/04 00:21:57;;;;;;;10.73;6.80;;;;;;;;;;13092200;22;20574;-84
2021/06/04 00:26:59;;;;;;;13.77;7.33;;;;;;;;;;13092365;22;20179;-84
2021/06/04 00:32:04;;;;;;;14.37;7.40;;;;;;;;;;13089816;22;20177;-84
2021/06/04 00:37:06;;;;;;;10.87;6.73;;;;;;;;;;13073822;22;20211;-86
2021/06/04 00:42:13;;;;;;;13.63;7.20;;;;;;;;;;13094537;22;20183;-84
2021/06/04 00:47:16;;;;;;;11.83;7.17;;;;;;;;;;13094710;22;20622;-84
2021/06/04 00:52:21;;;;;;;9.07;6.60;;;;;;;;;;13071531;22;20204;-84
2021/06/04 00:57:24;;;;;;;10.87;6.90;;;;;;;;;;13073139;22;20205;-83
2021/06/04 01:02:28;;;;;;;10.27;7.03;;;;;;;;;;13090699;22;20177;-84
2021/06/04 01:07:34;;;;;;;12.07;8.00;;;;;;;;;;13096328;22;20184;-84
2021/06/04 01:12:40;;;;;;;10.10;6.97;;;;;;;;;;13092643;22;20161;-84
2021/06/04 01:17:46;;;;;;;13.03;8.27;;;;;;;;;;13091890;22;20203;-86
2021/06/04 01:23:00;;;;;;;14.57;8.83;;;;;;;;;;13092626;22;20196;-84
2021/06/04 01:28:08;;;;;;;13.87;8.70;;;;;;;;;;13093025;22;20502;-85
2021/06/04 01:33:12;;;;;;;14.83;8.70;;;;;;;;;;13060676;22;20169;-85
2021/06/04 01:38:16;;;;;;;12.83;8.67;;;;;;;;;;13093676;22;20215;-85
2021/06/04 01:43:22;;;;;;;13.73;8.40;;;;;;;;;;13067178;22;20493;-86
2021/06/04 01:48:26;;;;;;;14.40;8.60;;;;;;;;;;13094042;22;20169;-84
2021/06/04 01:53:31;;;;;;;14.33;8.83;;;;;;;;;;13097155;22;20272;-83
2021/06/04 01:58:38;;;;;;;16.50;9.83;;;;;;;;;;13077028;22;20704;-84
2021/06/04 02:03:40;;;;;;;12.87;8.63;;;;;;;;;;13093287;22;20212;-84
2021/06/04 02:08:44;;;;;;;15.73;9.30;;;;;;;;;;13080698;22;20180;-84
2021/06/04 02:13:48;;;;;;;15.10;9.67;;;;;;;;;;13099915;22;20216;-84
2021/06/04 02:18:54;;;;;;;16.20;10.50;;;;;;;;;;13084104;22;20207;-84
2021/06/04 02:23:59;;;;;;;16.90;10.67;;;;;;;;;;13099300;22;20165;-85
2021/06/04 02:29:06;;;;;;;20.50;12.23;;;;;;;;;;13098336;22;20264;-84
2021/06/04 02:34:11;;;;;;;18.47;10.40;;;;;;;;;;13094957;22;20499;-82
2021/06/04 02:39:15;;;;;;;15.23;10.23;;;;;;;;;;13097226;22;20201;-86
2021/06/04 02:44:20;;;;;;;17.77;10.90;;;;;;;;;;13076111;22;20180;-83
2021/06/04 02:49:22;;;;;;;17.83;10.93;;;;;;;;;;13071216;22;20189;-84
2021/06/04 02:54:27;;;;;;;17.97;11.50;;;;;;;;;;13076372;22;20677;-84
2021/06/04 02:59:32;;;;;;;17.93;11.47;;;;;;;;;;13075005;22;20207;-82
2021/06/04 03:04:36;;;;;;;20.70;11.93;;;;;;;;;;13094941;22;20169;-82
2021/06/04 03:09:39;;;;;;;17.93;11.80;;;;;;;;;;13073393;22;20551;-83
2021/06/04 03:14:43;;;;;;;18.97;11.33;;;;;;;;;;13075686;22;20178;-83
2021/06/04 03:19:46;;;;;;;19.10;11.40;;;;;;;;;;13092225;22;20212;-83
2021/06/04 03:24:48;;;;;;;17.87;11.17;;;;;;;;;;13075344;22;20502;-82
2021/06/04 03:29:52;;;;;;;20.20;11.70;;;;;;;;;;13072362;22;20180;-83
2021/06/04 03:34:55;;;;;;;21.23;13.30;;;;;;;;;;13072159;22;20200;-84
2021/06/04 03:39:57;;;;;;;23.30;12.10;;;;;;;;;;13073804;22;20595;-83
2021/06/04 03:45:02;;;;;;;22.20;12.83;;;;;;;;;;13095999;22;20181;-83
2021/06/04 03:50:05;;;;;;;23.00;12.03;;;;;;;;;;13070120;22;20953;-83
2021/06/04 03:55:08;;;;;;;20.57;12.33;;;;;;;;;;13093668;22;20204;-83
2021/06/04 04:00:15;;;;;;;19.30;11.73;;;;;;;;;;13071235;22;20500;-83
2021/06/04 04:05:17;;;;;;;22.20;12.13;;;;;;;;;;13068519;22;20165;-82
2021/06/04 04:10:20;;;;;;;19.07;11.63;;;;;;;;;;13075223;22;20184;-81
2021/06/04 04:15:25;;;;;;;16.33;11.50;;;;;;;;;;13070899;22;20642;-80
2021/06/04 04:20:28;;;;;;;18.67;11.00;;;;;;;;;;13071128;22;20179;-80
2021/06/04 04:25:31;;;;;;;18.47;11.93;;;;;;;;;;13071865;22;20648;-81
2021/06/04 04:30:35;;;;;;;18.97;11.37;;;;;;;;;;13095566;22;20177;-81
2021/06/04 04:35:38;;;;;;;20.80;12.33;;;;;;;;;;13068562;22;20235;-80
2021/06/04 04:40:41;;;;;;;20.23;11.93;;;;;;;;;;13073035;22;20177;-80
2021/06/04 04:45:44;;;;;;;19.87;11.80;;;;;;;;;;13092029;22;20794;-83
2021/06/04 04:50:47;;;;;;;18.07;10.87;;;;;;;;;;13089349;22;20769;-80
2021/06/04 04:55:49;;;;;;;19.50;11.27;;;;;;;;;;13090936;22;20200;-80
2021/06/04 05:00:54;;;;;;;17.93;10.90;;;;;;;;;;13093449;22;20173;-84
2021/06/04 05:05:57;;;;;;;17.57;12.23;;;;;;;;;;13070699;22;20174;-81
2021/06/04 05:11:00;;;;;;;20.70;12.33;;;;;;;;;;13093453;22;20173;-78
2021/06/04 05:16:04;;;;;;;22.97;12.77;;;;;;;;;;13089806;22;20196;-83
2021/06/04 05:21:08;;;;;;;23.40;13.37;;;;;;;;;;13093230;22;20180;-83
2021/06/04 05:26:11;;;;;;;22.03;13.87;;;;;;;;;;13078399;22;20187;-81
2021/06/04 05:31:16;;;;;;;21.23;13.43;;;;;;;;;;13076455;22;20181;-82
2021/06/04 05:36:21;;;;;;;25.87;15.70;;;;;;;;;;13096528;22;20284;-82
2021/06/04 05:41:25;;;;;;;34.20;16.30;;;;;;;;;;13081888;22;20169;-81
2021/06/04 05:46:49;;;;;;;29.80;16.07;;;;;;;;;;13081154;22;20626;-86
2021/06/04 05:51:52;;;;;;;27.83;16.20;;;;;;;;;;13101608;22;20197;-90
2021/06/04 05:56:55;;;;;;;31.97;16.93;;;;;;;;;;13120678;22;20208;-89
2021/06/04 06:01:59;;;;;;;26.57;15.70;;;;;;;;;;13107895;22;20173;-89
2021/06/04 06:07:01;;;;;;;27.63;13.83;;;;;;;;;;13098344;22;20230;-88
2021/06/04 06:12:04;;;;;;;27.33;13.80;;;;;;;;;;13092428;22;20463;-88
2021/06/04 06:17:08;;;;;;;31.00;15.60;;;;;;;;;;13093530;22;20207;-88
2021/06/04 06:22:12;;;;;;;27.60;14.23;;;;;;;;;;13089949;22;20176;-89
2021/06/04 06:27:14;;;;;;;27.00;13.63;;;;;;;;;;13096025;22;20578;-88
2021/06/04 06:32:20;;;;;;;21.30;11.90;;;;;;;;;;13115912;22;20966;-91
2021/06/04 06:37:23;;;;;;;20.57;10.60;;;;;;;;;;13090135;22;20216;-88
2021/06/04 06:42:26;;;;;;;19.57;9.43;;;;;;;;;;13086261;22;20173;-87
2021/06/04 06:47:29;;;;;;;16.60;9.03;;;;;;;;;;13081169;22;20247;-89
2021/06/04 06:52:33;;;;;;;14.90;8.77;;;;;;;;;;13082553;22;21021;-89
2021/06/04 06:57:35;;;;;;;13.17;7.80;;;;;;;;;;13084543;22;20288;-87
2021/06/04 07:02:39;;;;;;;10.93;6.10;;;;;;;;;;13105363;22;20191;-87
2021/06/04 07:07:42;;;;;;;13.27;6.20;;;;;;;;;;13114851;22;20173;-89
2021/06/04 07:12:45;;;;;;;10.27;6.43;;;;;;;;;;13119163;22;20264;-90
2021/06/04 07:17:48;;;;;;;12.30;6.20;;;;;;;;;;13118784;22;20211;-90
2021/06/04 07:22:51;;;;;;;10.80;6.80;;;;;;;;;;13118253;22;20187;-90
2021/06/04 07:27:54;;;;;;;11.37;6.97;;;;;;;;;;13096796;22;20177;-89
2021/06/04 07:33:00;;;;;;;8.47;6.60;;;;;;;;;;13114569;22;20183;-91
2021/06/04 07:38:03;;;;;;;12.57;6.30;;;;;;;;;;13091383;22;20211;-91
2021/06/04 07:43:07;;;;;;;9.67;5.77;;;;;;;;;;13089484;22;20177;-89
2021/06/04 07:48:13;;;;;;;10.13;5.80;;;;;;;;;;13082496;22;20180;-88
2021/06/04 07:53:17;;;;;;;8.10;5.77;;;;;;;;;;13088513;22;20822;-91
2021/06/04 07:58:20;;;;;;;10.20;6.37;;;;;;;;;;13118404;22;20212;-87
2021/06/04 08:03:26;;;;;;;13.10;6.70;;;;;;;;;;13115099;22;20208;-89
2021/06/04 08:08:29;;;;;;;11.47;6.57;;;;;;;;;;13092814;22;20181;-90
2021/06/04 08:13:31;;;;;;;16.80;8.03;;;;;;;;;;13059362;22;20249;-87
2021/06/04 08:18:36;;;;;;;8.90;5.90;;;;;;;;;;13107362;22;20215;-90
2021/06/04 08:23:40;;;;;;;9.27;5.90;;;;;;;;;;13089278;22;20199;-89
2021/06/04 08:28:43;;;;;;;9.33;5.90;;;;;;;;;;13088698;22;20174;-89
2021/06/04 08:33:47;;;;;;;12.83;6.03;;;;;;;;;;13086317;22;20173;-88
2021/06/04 08:38:50;;;;;;;9.27;5.80;;;;;;;;;;13089339;22;20209;-90
2021/06/04 08:43:58;;;;;;;9.07;6.40;;;;;;;;;;13087776;22;20177;-88
2021/06/04 08:49:05;;;;;;;10.13;6.37;;;;;;;;;;13086610;22;20559;-89
2021/06/04 08:54:19;;;;;;;10.57;6.53;;;;;;;;;;13103465;22;20196;-91
2021/06/04 08:59:21;;;;;;;7.30;5.83;;;;;;;;;;13086175;22;20588;-90
2021/06/04 09:04:26;;;;;;;11.13;6.50;;;;;;;;;;13086979;22;20197;-89
2021/06/04 09:09:30;;;;;;;11.20;6.60;;;;;;;;;;13114187;22;20177;-90
2021/06/04 09:14:33;;;;;;;10.23;6.47;;;;;;;;;;13091417;22;20185;-89
2021/06/04 09:19:39;;;;;;;11.17;6.30;;;;;;;;;;13091221;22;20200;-89
2021/06/04 09:24:43;;;;;;;9.93;6.03;;;;;;;;;;13085908;22;20166;-89
2021/06/04 09:30:02;;;;;;;10.43;6.80;;;;;;;;;;13090217;22;20666;-90
2021/06/04 09:35:10;;;;;;;7.87;5.97;;;;;;;;;;13111134;22;20363;-90
2021/06/04 09:40:19;;;;;;;9.17;5.60;;;;;;;;;;13094043;22;20227;-90
2021/06/04 09:45:27;;;;;;;10.40;5.57;;;;;;;;;;13114222;22;20169;-88
2021/06/04 09:50:32;;;;;;;9.23;5.77;;;;;;;;;;13110447;22;20180;-88
2021/06/04 09:55:37;;;;;;;7.20;5.50;;;;;;;;;;13108943;22;20199;-88
2021/06/04 10:00:41;;;;;;;9.43;6.17;;;;;;;;;;13121995;22;20250;-89
2021/06/04 10:05:44;;;;;;;8.63;5.50;;;;;;;;;;13105831;22;20173;-88
2021/06/04 10:10:47;;;;;;;9.50;5.70;;;;;;;;;;13104311;22;20209;-92
2021/06/04 10:15:52;;;;;;;9.53;5.90;;;;;;;;;;13115182;22;20173;-88
2021/06/04 10:21:11;;;;;;;7.43;5.57;;;;;;;;;;13087000;22;20204;-92
2021/06/04 10:26:24;;;;;;;8.83;6.10;;;;;;;;;;13088864;22;20247;-90
2021/06/04 10:31:37;;;;;;;8.23;5.47;;;;;;;;;;13100861;22;20807;-88
2021/06/04 10:36:43;;;;;;;9.40;6.50;;;;;;;;;;13086758;22;20685;-90
2021/06/04 10:41:49;;;;;;;10.57;6.10;;;;;;;;;;13113934;22;20193;-89
2021/06/04 10:46:53;;;;;;;10.90;6.30;;;;;;;;;;13090637;22;20215;-90
2021/06/04 10:51:59;;;;;;;9.93;6.80;;;;;;;;;;13089905;22;20231;-90
2021/06/04 10:57:03;;;;;;;8.20;5.80;;;;;;;;;;13088222;22;20187;-89
2021/06/04 11:02:12;;;;;;;12.33;7.10;;;;;;;;;;13083046;22;20494;-92
2021/06/04 11:07:21;;;;;;;11.70;6.87;;;;;;;;;;13085120;22;20634;-89
2021/06/04 11:12:30;;;;;;;14.67;7.57;;;;;;;;;;13084393;22;20484;-89
2021/06/04 11:17:35;;;;;;;9.83;6.20;;;;;;;;;;13055407;22;20243;-89
2021/06/04 11:22:44;;;;;;;11.20;7.50;;;;;;;;;;13080932;22;20904;-87
2021/06/04 11:27:48;;;;;;;12.03;5.63;;;;;;;;;;13083062;22;20185;-88
2021/06/04 11:32:55;;;;;;;9.73;6.20;;;;;;;;;;13102926;22;20399;-89
2021/06/04 11:38:01;;;;;;;10.57;6.37;;;;;;;;;;13099892;22;20216;-88
2021/06/04 11:43:08;;;;;;;10.70;6.33;;;;;;;;;;13091749;22;20525;-88
2021/06/04 11:48:28;;;;;;;11.20;6.37;;;;;;;;;;13109662;22;20249;-89
2021/06/04 11:53:33;;;;;;;10.30;5.93;;;;;;;;;;13070192;22;20207;-88
2021/06/04 11:58:47;;;;;;;11.97;5.97;;;;;;;;;;13112981;22;20241;-89
2021/06/04 12:03:51;;;;;;;8.87;6.20;;;;;;;;;;13063706;22;20212;-89
2021/06/04 12:08:55;;;;;;;11.57;6.13;;;;;;;;;;13104745;22;20173;-91
2021/06/04 12:14:25;;;;;;;12.77;6.63;;;;;;;;;;13097871;22;20180;-87
2021/06/04 12:19:31;;;;;;;11.47;7.00;;;;;;;;;;12996410;22;20234;-88
2021/06/04 12:25:01;;;;;;;8.90;6.03;;;;;;;;;;13092190;22;20180;-89
2021/06/04 12:30:05;;;;;;;8.33;5.40;;;;;;;;;;13092122;22;20181;-89
2021/06/04 12:35:28;;;;;;;8.93;5.83;;;;;;;;;;13082407;22;20215;-86
2021/06/04 12:40:31;;;;;;;10.43;6.33;;;;;;;;;;13086909;22;20231;-89
2021/06/04 12:45:35;;;;;;;11.77;6.37;;;;;;;;;;13087049;22;20641;-90
2021/06/04 12:50:39;;;;;;;10.23;6.40;;;;;;;;;;13087594;22;20188;-90
2021/06/04 12:55:44;;;;;;;10.60;5.60;;;;;;;;;;13104573;22;20205;-89
2021/06/04 13:00:49;;;;;;;7.97;5.27;;;;;;;;;;13103851;22;20253;-90
2021/06/04 13:05:55;;;;;;;8.77;5.80;;;;;;;;;;13099650;22;20247;-90
2021/06/04 13:11:00;;;;;;;11.00;5.60;;;;;;;;;;13082067;22;20559;-88
2021/06/04 13:16:20;;;;;;;9.70;5.50;;;;;;;;;;13079445;22;20571;-88
2021/06/04 13:21:24;;;;;;;9.40;5.57;;;;;;;;;;13082242;22;20224;-87
2021/06/04 13:26:29;;;;;;;7.70;5.13;;;;;;;;;;13080962;22;20362;-90
2021/06/04 13:31:35;;;;;;;8.07;5.60;;;;;;;;;;13082582;22;20172;-89
2021/06/04 13:36:38;;;;;;;10.17;5.60;;;;;;;;;;13077755;22;20473;-90
2021/06/04 13:41:44;;;;;;;8.73;5.17;;;;;;;;;;13084839;22;20250;-89
2021/06/04 13:46:53;;;;;;;8.93;5.07;;;;;;;;;;13084740;22;20173;-88
2021/06/04 13:51:57;;;;;;;8.93;5.23;;;;;;;;;;13083972;22;20705;-88
2021/06/04 13:57:10;;;;;;;8.70;5.37;;;;;;;;;;13085309;22;20169;-87
2021/06/04 14:02:26;;;;;;;10.77;5.03;;;;;;;;;;13087672;22;20212;-90
2021/06/04 14:07:35;;;;;;;8.43;4.93;;;;;;;;;;13084824;22;20180;-89
2021/06/04 14:12:37;;;;;;;8.47;4.90;;;;;;;;;;13110780;22;20161;-89
2021/06/04 14:17:50;;;;;;;7.77;4.87;;;;;;;;;;13107880;22;20989;-89
2021/06/04 14:22:53;;;;;;;8.57;4.70;;;;;;;;;;13112809;22;20181;-88
2021/06/04 14:27:57;;;;;;;11.03;4.83;;;;;;;;;;13093692;22;20181;-88
2021/06/04 14:33:08;;;;;;;8.50;5.60;;;;;;;;;;13116227;22;20179;-89
2021/06/04 14:38:34;;;;;;;7.00;4.90;;;;;;;;;;13060726;22;20196;-89
2021/06/04 14:43:37;;;;;;;8.23;4.90;;;;;;;;;;13051960;22;20678;-89
2021/06/04 14:48:41;;;;;;;7.10;4.43;;;;;;;;;;13104859;22;20173;-87
2021/06/04 14:53:44;;;;;;;8.13;4.60;;;;;;;;;;13091801;22;20197;-89
2021/06/04 14:58:46;;;;;;;9.63;5.53;;;;;;;;;;13090485;22;20197;-89
2021/06/04 15:03:52;;;;;;;8.60;5.03;;;;;;;;;;13096915;22;20263;-88
2021/06/04 15:08:54;;;;;;;9.97;5.23;;;;;;;;;;13116999;22;20630;-90
2021/06/04 15:13:57;;;;;;;8.30;5.70;;;;;;;;;;13090992;22;20173;-89
2021/06/04 15:19:01;;;;;;;12.90;5.57;;;;;;;;;;13086531;22;20246;-88
2021/06/04 15:24:04;;;;;;;8.67;5.37;;;;;;;;;;13088443;22;20177;-88
2021/06/04 15:29:09;;;;;;;7.80;5.20;;;;;;;;;;13109947;22;20691;-90
2021/06/04 16:28:09;;;;;;;7.83;4.57;;;;;;;;;;13084624;22;20176;-90
2021/06/04 16:33:12;;;;;;;6.93;4.40;;;;;;;;;;13086024;22;20512;-90
2021/06/04 16:38:15;;;;;;;6.03;4.17;;;;;;;;;;13108875;22;20204;-88
2021/06/04 16:43:23;;;;;;;6.17;4.37;;;;;;;;;;13088583;22;20177;-89
2021/06/04 16:48:26;;;;;;;5.93;4.03;;;;;;;;;;13083984;22;20673;-89
2021/06/04 16:53:29;;;;;;;6.87;4.10;;;;;;;;;;13085555;22;20220;-89
2021/06/04 16:58:33;;;;;;;6.77;4.23;;;;;;;;;;13082275;22;20276;-87
2021/06/04 17:03:37;;;;;;;7.23;4.43;;;;;;;;;;13083496;22;20177;-90
2021/06/04 17:08:39;;;;;;;8.97;4.80;;;;;;;;;;13086908;22;20550;-88
2021/06/04 17:13:44;;;;;;;6.93;4.20;;;;;;;;;;13090795;22;20252;-88
2021/06/04 17:18:46;;;;;;;7.37;4.27;;;;;;;;;;13088041;22;20205;-88
2021/06/04 17:23:49;;;;;;;5.50;3.90;;;;;;;;;;13112461;22;20188;-91
2021/06/04 17:28:53;;;;;;;5.40;4.10;;;;;;;;;;13126818;22;20165;-88
2021/06/04 17:33:57;;;;;;;4.77;4.27;;;;;;;;;;13080887;22;20630;-87
2021/06/04 17:39:01;;;;;;;6.33;4.27;;;;;;;;;;13083702;22;20200;-87
2021/06/04 17:44:06;;;;;;;5.07;4.17;;;;;;;;;;13078612;22;20175;-88
2021/06/04 17:49:08;;;;;;;7.00;4.23;;;;;;;;;;13080164;22;20184;-88
2021/06/04 17:54:11;;;;;;;7.10;4.57;;;;;;;;;;13080889;22;20699;-91
2021/06/04 17:59:15;;;;;;;6.30;3.90;;;;;;;;;;13081373;22;20537;-89
2021/06/04 18:04:17;;;;;;;5.07;4.17;;;;;;;;;;13080176;22;20173;-89
2021/06/04 18:09:20;;;;;;;6.73;4.50;;;;;;;;;;13083840;22;20185;-89
2021/06/04 18:14:24;;;;;;;7.57;4.53;;;;;;;;;;13081373;22;20692;-86
2021/06/04 18:19:27;;;;;;;7.07;5.20;;;;;;;;;;13103192;22;20517;-88
2021/06/04 18:24:29;;;;;;;8.73;5.00;;;;;;;;;;13081331;22;20189;-88
2021/06/04 18:29:33;;;;;;;6.17;4.03;;;;;;;;;;13082273;22;20173;-88
2021/06/04 18:34:36;;;;;;;7.93;5.67;;;;;;;;;;13097331;22;20179;-85
2021/06/04 18:39:38;;;;;;;7.00;4.90;;;;;;;;;;13079012;22;20626;-87
2021/06/04 18:44:42;;;;;;;8.07;5.97;;;;;;;;;;13078013;22;20169;-87
2021/06/04 18:49:48;;;;;;;7.27;5.60;;;;;;;;;;13078362;22;20173;-86
2021/06/04 18:54:51;;;;;;;7.07;5.17;;;;;;;;;;13080207;22;20192;-88
2021/06/04 18:59:55;;;;;;;6.47;5.03;;;;;;;;;;13081791;22;20204;-87
2021/06/04 19:04:57;;;;;;;6.17;4.40;;;;;;;;;;13078092;22;20484;-87
2021/06/04 19:09:59;;;;;;;5.67;4.60;;;;;;;;;;13081086;22;20521;-87
2021/06/04 19:15:03;;;;;;;7.57;5.20;;;;;;;;;;13071961;22;20213;-83
2021/06/04 19:20:07;;;;;;;8.37;5.20;;;;;;;;;;13072940;22;20693;-83
2021/06/04 19:25:10;;;;;;;7.50;5.37;;;;;;;;;;13071322;22;20193;-87
2021/06/04 19:30:16;;;;;;;6.83;5.07;;;;;;;;;;13100252;22;20173;-85
2021/06/04 19:35:18;;;;;;;6.27;4.80;;;;;;;;;;13080363;22;20629;-90
2021/06/04 19:40:20;;;;;;;4.90;4.37;;;;;;;;;;13102333;22;20215;-83
2021/06/04 19:45:26;;;;;;;7.47;5.63;;;;;;;;;;13072706;22;20173;-87
2021/06/04 19:50:28;;;;;;;6.17;4.87;;;;;;;;;;13073042;22;20336;-84
2021/06/04 19:55:31;;;;;;;5.53;4.70;;;;;;;;;;13077273;22;20197;-84
2021/06/04 20:00:36;;;;;;;6.77;5.30;;;;;;;;;;13083464;22;20204;-82
2021/06/04 20:05:38;;;;;;;9.30;5.60;;;;;;;;;;13075021;22;20196;-86
2021/06/04 20:10:41;;;;;;;6.10;4.40;;;;;;;;;;13097770;22;20638;-80
2021/06/04 20:15:45;;;;;;;9.33;5.43;;;;;;;;;;13093721;22;20741;-85
2021/06/04 20:20:48;;;;;;;9.00;5.63;;;;;;;;;;13069916;22;20683;-88
2021/06/04 20:25:51;;;;;;;8.63;5.90;;;;;;;;;;13097314;22;20192;-89
2021/06/04 20:30:57;;;;;;;8.80;5.90;;;;;;;;;;13094551;22;20307;-84
2021/06/04 20:36:00;;;;;;;7.27;5.43;;;;;;;;;;13068574;22;20176;-84
2021/06/04 20:41:03;;;;;;;7.67;6.30;;;;;;;;;;13069137;22;20529;-84
2021/06/04 20:46:09;;;;;;;7.93;5.83;;;;;;;;;;13065977;22;20490;-83
2021/06/04 20:51:12;;;;;;;10.23;5.57;;;;;;;;;;13065331;22;20186;-82
2021/06/04 20:56:15;;;;;;;8.60;6.27;;;;;;;;;;13071614;22;20255;-83
2021/06/04 21:01:19;;;;;;;7.27;5.83;;;;;;;;;;13067854;22;20287;-84
2021/06/04 21:06:23;;;;;;;8.80;6.07;;;;;;;;;;13066486;22;20688;-84
2021/06/04 21:11:26;;;;;;;9.23;6.77;;;;;;;;;;13072690;22;20173;-83
2021/06/04 21:16:30;;;;;;;10.53;7.97;;;;;;;;;;13072397;22;20173;-84
2021/06/04 21:21:33;;;;;;;14.93;9.00;;;;;;;;;;13100603;22;20212;-85
2021/06/04 21:26:37;;;;;;;12.97;9.37;;;;;;;;;;13117670;22;20181;-89
2021/06/04 21:31:42;;;;;;;12.67;8.97;;;;;;;;;;13117066;22;20226;-89
2021/06/04 21:36:44;;;;;;;19.33;12.77;;;;;;;;;;13138385;22;20540;-90
2021/06/04 21:41:47;;;;;;;18.00;10.53;;;;;;;;;;13119545;22;20612;-90
2021/06/04 21:46:52;;;;;;;18.27;12.73;;;;;;;;;;13116034;22;20192;-92
2021/06/04 21:51:55;;;;;;;17.50;13.07;;;;;;;;;;13116703;22;20284;-89
2021/06/04 21:56:57;;;;;;;19.20;13.10;;;;;;;;;;13113865;22;20177;-89
2021/06/04 22:02:02;;;;;;;21.33;14.53;;;;;;;;;;13111834;22;20705;-90
2021/06/04 22:07:05;;;;;;;22.03;14.30;;;;;;;;;;13111383;22;20723;-90
2021/06/04 22:12:08;;;;;;;21.27;15.23;;;;;;;;;;13111460;22;20260;-90
2021/06/04 22:17:12;;;;;;;20.47;14.07;;;;;;;;;;13121645;22;20316;-90
2021/06/04 22:22:14;;;;;;;21.57;15.50;;;;;;;;;;13121357;22;20196;-89
2021/06/04 22:27:17;;;;;;;23.63;17.73;;;;;;;;;;13121467;22;20185;-88
2021/06/04 22:32:23;;;;;;;24.27;17.33;;;;;;;;;;13117616;22;20177;-89
2021/06/04 22:37:26;;;;;;;24.13;17.03;;;;;;;;;;13111213;22;20169;-90
2021/06/04 22:42:28;;;;;;;21.67;16.50;;;;;;;;;;13109987;22;20208;-89
2021/06/04 22:47:32;;;;;;;24.37;16.30;;;;;;;;;;13115297;22;20227;-90
2021/06/04 22:52:35;;;;;;;24.67;16.40;;;;;;;;;;13122439;22;20279;-89
2021/06/04 22:57:37;;;;;;;21.43;15.97;;;;;;;;;;13115462;22;20173;-90
2021/06/04 23:02:41;;;;;;;19.73;14.20;;;;;;;;;;13109755;22;20551;-89
2021/06/04 23:07:44;;;;;;;22.17;16.40;;;;;;;;;;13108313;22;20271;-89
2021/06/04 23:12:47;;;;;;;26.07;18.43;;;;;;;;;;13112105;22;20914;-90
2021/06/04 23:17:51;;;;;;;27.73;19.00;;;;;;;;;;13110640;22;20905;-89
2021/06/04 23:22:54;;;;;;;29.23;21.30;;;;;;;;;;13111668;22;20641;-91
2021/06/04 23:27:57;;;;;;;30.73;20.80;;;;;;;;;;13108514;22;20747;-90
2021/06/04 23:33:01;;;;;;;27.67;20.10;;;;;;;;;;13108348;22;20228;-89
2021/06/04 23:38:03;;;;;;;31.80;21.13;;;;;;;;;;13107197;22;20188;-91
2021/06/04 23:43:10;;;;;;;30.17;20.53;;;;;;;;;;13109479;22;20204;-90
2021/06/04 23:48:14;;;;;;;30.03;20.57;;;;;;;;;;13106769;22;20192;-91
2021/06/04 23:53:17;;;;;;;31.07;21.07;;;;;;;;;;13109735;22;20200;-89
2021/06/04 23:58:20;;;;;;;33.07;20.83;;;;;;;;;;13110060;22;20173;-89
